METAR AND TAF INFORMATION
METAR FOR EGHQ
ADDS - METARS form results

(2143 UTC 20 February 2020)
Data provider http://aviationweather.gov/metar/data/
 
METAR text: EGHQ 202120Z 28017KT 9999 FEW028 06/01 Q1023
Conditions at: EGHQ (NEWQUAY , GB) observed 2120 UTC 20 February 2020
Temperature: 6.0°C (43°F)
Dewpoint: 1.0°C (34°F) [RH = 70%]
Pressure (altimeter): 30.21 inches Hg (1023.0 mb)
Winds: from the W (280 degrees) at 20 MPH (17 knots; 8.7 m/s)
Visibility: 6 or more miles (10+ km)
Ceiling: at least 12,000 feet AGL
Clouds: few clouds at 2800 feet AGL
Weather: no significant weather observed at this time

METAR text: EGHQ 202050Z 27014KT 9999 FEW024 06/03 Q1023
Conditions at: EGHQ (NEWQUAY , GB) observed 2050 UTC 20 February 2020
Temperature: 6.0°C (43°F)
Dewpoint: 3.0°C (37°F) [RH = 81%]
Pressure (altimeter): 30.21 inches Hg (1023.0 mb)
Winds: from the W (270 degrees) at 16 MPH (14 knots; 7.2 m/s)
Visibility: 6 or more miles (10+ km)
Ceiling: at least 12,000 feet AGL
Clouds: few clouds at 2400 feet AGL
Weather: no significant weather observed at this time

Forecast for: EGHQ (NEWQUAY , GB)
Text: TAF EGHQ 201958Z 2021/2106 27020KT 9999 FEW035
Forecast period: 2100 UTC 20 February 2020 to 0000 UTC 21 February 2020
Forecast type: FROM: standard forecast or significant change
Winds: from the W (270 degrees) at 23 MPH (20 knots; 10.3 m/s)
Visibility: 6 or more miles 10+ km)
Ceiling: at least 12,000 feet AGL
Clouds: few clouds at 3500 feet AGL
Weather: no significant weather forecast for this period
Text: BECMG 2100/2103 24016KT
Forecast period: 0000 to 0600 UTC 21 February 2020
Forecast type: BECOMING: Conditions expected to become as follows by 0300 UTC 21 February 2020
Winds: from the WSW (240 degrees) at 18 MPH (16 knots; 8.2 m/s)
Visibility: 6 or more miles 10+ km)
Ceiling: at least 12,000 feet AGL
Clouds: few clouds at 3500 feet AGL
Weather: no significant weather forecast for this period

 AIRPORT MAP

 RUNWAY INFORMATION
Runway 13 Runway length 9006 ft Runway width 285 ft
Runway elevation 306 ft Runway displaced threshold 0 ft Runway heading 121
Runway 31 Runway length 9006 ft Runway width 285 ft
Runway elevation 390 ft Runway displaced threshold 0 ft Runway heading 301

 AIRPORT FREQUENCIES
Type APP Name APP Frequency 128.725 MHZ
Type ATIS Name ATIS Frequency 23.41 MHZ
Type DIR Name DIRECTOR Frequency 125.55 MHZ
Type GND Name GND Frequency 24.187 MHZ
Type MISC Name ZONE Frequency 25.897 MHZ
Type OPS Name OPS Frequency 27.53 MHZ
Type TWR Name TWR Frequency 123.4 MHZ

 AIRPORT NEAR NAVIGATION AIDS
Type VOR-DME Name Lands End Frequency 114200 KHZ
Type NDB Name St Mawgan Frequency 357 KHZ
Type TACAN Name St Mawgan Frequency 112600 KHZ



Powered by Virtual Airlines Manager [v2.6.2]